x

South Hatteras - 225 South Of Cape Hatteras (41002) Wave Buoy

7:50 - Mon 27th Apr 2015 All times are EDT. -4 hours from GMT.

  • Sig Wave height 6.2ft
  • Swell Direction
  • Peak Period 8s
  • Average Period 6s
  • Wind
    7mph, 9mph gusts
  • Sea Temp 70°f
  • Luft Temp 67°f
  • Sea Pressure 1005.1mb
  • South Hatteras - 225 South Of Cape Hatteras
  • South Hatteras - 225 South Of Cape Hatteras

More Historic Weather Station data

Upgrade to MSW Pro to gain access to the past 30 days of data for over 8000 Wavebouys and Weather Stations around the globe.

Join Pro

Comparision Forecast

View Surf forecast
   
Mo 04/27 7:50 6ft 8s 6s 7 9 mph 1005.1mb 70f 67f
6:50 6ft 8s 6s 9 11 mph 1004.2mb 70f 67f
5:50 6ft 8s 6s 9 13 mph 1003.7mb 70f 67f
4:50 6.5ft 8s 6s 13 16 mph 1003.5mb 70f 67f
3:50 7ft 8s 6s 9 11 mph 1003.2mb 70f 67f
2:50 7ft 8s 6s 9 11 mph 1003.9mb 70f 67f
1:50 7ft 8s 7s 9 11 mph 1004.5mb 70f 67f
12:50 7ft 8s 6s 13 20 mph 1004.4mb 71f 66f
So 04/26 11:50 7ft 8s 6s 9 11 mph 1004.3mb 71f 69f
10:50 7ft 8s 6s 9 11 mph 1004.7mb 71f 69f
9:50 7ft 8s 6s 13 18 mph 1004.7mb 71f 70f
8:50 8ft 8s 6s 16 18 mph 1004.4mb 71f 70f
7:50 8ft 8s 6s 16 20 mph 1003.6mb 71f 71f
6:50 8ft 8s 6s 16 18 mph 1003.2mb 71f 72f
5:50 8ft 8s 7s 16 20 mph 1002.6mb 71f 72f
4:50 7.5ft 8s 6s 13 16 mph 1002.3mb 71f 72f
3:50 7ft 8s 6s 16 18 mph 1001.9mb 71f 73f
2:50 8ft 8s 6s 18 22 mph 1002mb 71f 73f
1:50 7ft 8s 6s 16 20 mph 1002.2mb 71f 73f
12:50 6ft 8s 6s 16 18 mph 1002.3mb 71f 73f
11:50 6.5ft 8s 6s 18 20 mph 1002.7mb 71f 73f
10:50 6ft 7s 5s 18 22 mph 1002.9mb 70f 72f
9:50 6ft 7s 5s 18 22 mph 1002.9mb 70f 72f
8:50 6ft 6s 5s 20 22 mph 1002.7mb 70f 72f
7:50 5.5ft 7s 5s 22 25 mph 1002.7mb 70f 71f
6:50 5.5ft 6s 5s 18 20 mph 1002.5mb 70f 71f
5:50 5ft 6s 5s 20 22 mph 1001.8mb 70f 71f
4:50 6ft 6s 5s 11 13 mph 1001.4mb 70f 69f
3:50 6ft 6s 5s 11 13 mph 1002.8mb 71f 67f
2:50 6.5ft 6s 5s 20 25 mph 1003mb 71f 73f
1:50 7ft 6s 5s 27 31 mph 1003.3mb 71f 73f
12:50 6.5ft 6s 5s 27 31 mph 1004.3mb 71f 73f
Sa 04/25 11:50 6ft 6s 5s 27 34 mph 1005mb 71f 73f
10:50 6ft 6s 5s 27 31 mph 1005.9mb 71f 73f
9:50 5.5ft 6s 5s 25 29 mph 1007.4mb 71f 72f
8:50 5ft 5s 5s 22 27 mph 1008.4mb 71f 71f
7:50 5ft 5s 5s 25 29 mph 1009mb 71f 71f
6:50 5ft 5s 5s 22 27 mph 1008.9mb 71f 70f
5:50 4.5ft 8s 5s 22 27 mph 1009.7mb 70f 69f
4:50 4.5ft 9s 5s 20 27 mph 1011.6mb 70f 69f
3:50 4ft 9s 5s 18 20 mph 1013.1mb 70f 68f
2:50 4.5ft 9s 6s 16 22 mph 1014.2mb 71f 68f
1:50 4.5ft 9s 6s 16 22 mph 1014.9mb 71f 67f
12:50 4.5ft 9s 6s 16 20 mph 1015.4mb 71f 66f
11:50 4.5ft 9s 7s 13 16 mph 1015.6mb 71f 66f
10:50 5ft 10s 7s 11 13 mph 1016.3mb 71f 65f
9:50 5.5ft 9s 7s 9 11 mph 1016.7mb 70f 65f
8:50 6ft 10s 7s 7 9 mph 1016.6mb 70f 64f
7:50 6ft 10s 7s 2 4 mph 1017mb 70f 64f
6:50 6.5ft 8s 7s 4 7 mph 1016.6mb 70f 63f
5:50 7ft 10s 7s 2 4 mph 1016.2mb 70f 63f
4:50 6ft 8s 7s 2 4 mph 1015.8mb 70f 63f
3:50 5ft 8s 6s 2 7 mph 1016.2mb 70f 63f
2:50 5ft 8s 6s 4 7 mph 1016.4mb 70f 63f
1:50 5ft 7s 6s 4 9 mph 1016.7mb 70f 63f
12:50 6ft 8s 6s 9 11 mph 1017.1mb 70f 63f
Fr 04/24 11:50 6ft 8s 7s 9 13 mph 1017.3mb 70f 63f
10:50 6.5ft 8s 6s 9 13 mph 1017.2mb 70f 63f
9:50 6ft 8s 6s 9 13 mph 1017.2mb 70f 63f
8:50 7ft 8s 6s 11 16 mph 1016.6mb 71f 63f
7:50 7ft 7s 6s 11 16 mph 1016.2mb 71f 63f
6:50 7ft 8s 6s 13 18 mph 1015.9mb 71f 64f
5:50 7ft 7s 6s 13 18 mph 1015.4mb 71f 64f
4:50 6.5ft 7s 6s 18 20 mph 1014.8mb 71f 65f
3:50 7ft 7s 6s 16 20 mph 1014.5mb 71f 65f
2:50 7ft 7s 6s 20 25 mph 1014.7mb 71f 66f
1:50 7ft 7s 6s 20 25 mph 1014.6mb 71f 67f
12:50 7ft 7s 5s 22 27 mph 1014.4mb 71f 68f
11:50 6.5ft 7s 5s 25 29 mph 1014.1mb 71f 68f
10:50 5ft 6s 5s 27 29 mph 1013.3mb 71f 69f
9:50 5ft 6s 6s 13 16 mph 1012.6mb 71f 71f
8:50 5ft 6s 6s 13 18 mph 1012mb 71f 72f
7:50 5ft 15s 6s 13 18 mph 1011.8mb 71f 72f
6:50 5ft 15s 6s 16 20 mph 1011.4mb 71f 71f
5:50 5ft 15s 6s 11 16 mph 1011.2mb 71f 69f
4:50 5ft 15s 6s 18 20 mph 1010.9mb 71f 68f
3:50 4.5ft 15s 6s 16 18 mph 1010.8mb 71f 72f
2:50 5ft 14s 6s 18 20 mph 1009.8mb 71f 72f
1:50 5ft 14s 6s 13 16 mph 1011mb 71f 72f
12:50 4.5ft 15s 6s 13 16 mph 1011.6mb 72f 72f
Do 04/23 11:50 5ft 15s 6s 13 16 mph 1012mb 72f 72f
10:50 5ft 7s 6s 11 13 mph 1012.4mb 72f 72f
9:50 5ft 7s 6s 11 13 mph 1012.3mb 72f 72f
8:50 5ft 7s 6s 13
mph
1012.5mb 72f 72f
7:50 5.5ft 7s 6s 11 13 mph 1012mb 72f 72f
6:50 6ft 8s 6s 16 18 mph 1011.7mb 72f 73f
5:50 7ft 7s 6s 13 18 mph 1011.5mb 72f 73f
4:50 6ft 8s 6s 16 20 mph 1011.5mb 72f 73f
3:50 6ft 7s 6s 18 22 mph 1011.7mb 72f 72f
2:50 6ft 7s 5s 20 25 mph 1012.1mb 72f 72f
1:50 5.5ft 7s 5s 20 25 mph 1012.9mb 72f 73f
12:50 5ft 6s 5s 13 20 mph 1013.3mb 72f 69f